Terminal Aerodrome Forecast
Issued by NWS Mt. Holly, NJ

Home | Current Version | Previous Version | Text Only | Print | Product List | Glossary On
Versions: 1 2 3 4 5 6 7 8 9 10 11 12 13 14 15 16 17 18 19
000
FTAK31 PANC 231301 CCA
TAFABE
TAF COR
PABE 231301Z 2313/2412 22008KT 1/4SM FG VV001
      TEMPO 2313/2317 1/2SM FG VV002
     FM231700 21008KT 3SM BR SCT004 OVC008
     FM231800 20014KT P6SM SCT008 OVC025
     FM232200 20018G26KT P6SM SCT025 BKN040
     FM240600 20018KT 5SM -RA BR BKN008 OVC015=

USA.gov is the U.S. government's official web portal to all federal, state and local government web resources and services.